sensor_id;sensor_type;location;lat;lon;timestamp;pressure;altitude;pressure_sealevel;temperature;humidity
30967;BME280;17649;51.836;8.330;2023-04-28T00:02:31;100898.22;;;10.19;nan
30967;BME280;17649;51.836;8.330;2023-04-28T00:05:33;100897.47;;;10.17;nan
30967;BME280;17649;51.836;8.330;2023-04-28T00:08:33;100896.41;;;10.21;nan
30967;BME280;17649;51.836;8.330;2023-04-28T00:11:33;100892.91;;;10.22;nan
30967;BME280;17649;51.836;8.330;2023-04-28T00:14:34;100887.88;;;10.19;nan
30967;BME280;17649;51.836;8.330;2023-04-28T00:17:34;100886.00;;;10.23;nan
30967;BME280;17649;51.836;8.330;2023-04-28T00:20:34;100881.78;;;10.20;nan
30967;BME280;17649;51.836;8.330;2023-04-28T00:23:34;100866.22;;;10.22;nan
30967;BME280;17649;51.836;8.330;2023-04-28T00:26:35;100855.03;;;10.21;nan
30967;BME280;17649;51.836;8.330;2023-04-28T00:29:35;100853.91;;;10.27;nan
30967;BME280;17649;51.836;8.330;2023-04-28T00:32:35;100850.47;;;10.26;nan
30967;BME280;17649;51.836;8.330;2023-04-28T00:35:36;100845.81;;;10.15;nan
30967;BME280;17649;51.836;8.330;2023-04-28T00:38:36;100841.31;;;10.19;nan
30967;BME280;17649;51.836;8.330;2023-04-28T00:41:36;100846.94;;;10.10;nan
30967;BME280;17649;51.836;8.330;2023-04-28T00:44:37;100843.16;;;10.17;nan
30967;BME280;17649;51.836;8.330;2023-04-28T00:47:37;100835.56;;;10.14;nan
30967;BME280;17649;51.836;8.330;2023-04-28T00:50:37;100832.81;;;10.17;nan
30967;BME280;17649;51.836;8.330;2023-04-28T00:53:38;100842.13;;;10.21;nan
30967;BME280;17649;51.836;8.330;2023-04-28T00:56:38;100831.53;;;10.26;nan
30967;BME280;17649;51.836;8.330;2023-04-28T00:59:38;100825.06;;;10.17;nan
30967;BME280;17649;51.836;8.330;2023-04-28T01:02:38;100824.59;;;10.26;nan
30967;BME280;17649;51.836;8.330;2023-04-28T01:05:39;100821.44;;;10.21;nan
30967;BME280;17649;51.836;8.330;2023-04-28T01:08:39;100823.09;;;10.22;nan
30967;BME280;17649;51.836;8.330;2023-04-28T01:11:41;100815.19;;;10.25;nan
30967;BME280;17649;51.836;8.330;2023-04-28T01:14:41;100814.06;;;10.31;nan
30967;BME280;17649;51.836;8.330;2023-04-28T01:17:42;100804.28;;;10.36;nan
30967;BME280;17649;51.836;8.330;2023-04-28T01:20:42;100810.13;;;10.39;nan
30967;BME280;17649;51.836;8.330;2023-04-28T01:23:45;100800.88;;;10.35;nan
30967;BME280;17649;51.836;8.330;2023-04-28T01:26:45;100793.69;;;10.40;nan
30967;BME280;17649;51.836;8.330;2023-04-28T01:29:46;100784.19;;;10.41;nan
30967;BME280;17649;51.836;8.330;2023-04-28T01:32:46;100791.66;;;10.47;nan
30967;BME280;17649;51.836;8.330;2023-04-28T01:35:46;100803.09;;;10.43;nan
30967;BME280;17649;51.836;8.330;2023-04-28T01:38:46;100799.56;;;10.44;nan
30967;BME280;17649;51.836;8.330;2023-04-28T01:41:46;100788.47;;;10.42;nan
30967;BME280;17649;51.836;8.330;2023-04-28T01:44:47;100786.56;;;10.45;nan
30967;BME280;17649;51.836;8.330;2023-04-28T01:47:47;100777.81;;;10.48;nan
30967;BME280;17649;51.836;8.330;2023-04-28T01:50:47;100778.47;;;10.52;nan
30967;BME280;17649;51.836;8.330;2023-04-28T01:53:47;100768.75;;;10.39;nan
30967;BME280;17649;51.836;8.330;2023-04-28T01:56:47;100768.84;;;10.38;nan
30967;BME280;17649;51.836;8.330;2023-04-28T01:59:48;100761.59;;;10.44;nan
30967;BME280;17649;51.836;8.330;2023-04-28T02:02:48;100761.69;;;10.43;nan
30967;BME280;17649;51.836;8.330;2023-04-28T02:05:48;100768.50;;;10.28;nan
30967;BME280;17649;51.836;8.330;2023-04-28T02:08:49;100759.56;;;10.34;nan
30967;BME280;17649;51.836;8.330;2023-04-28T02:11:49;100765.94;;;10.44;nan
30967;BME280;17649;51.836;8.330;2023-04-28T02:14:50;100760.06;;;10.40;nan
30967;BME280;17649;51.836;8.330;2023-04-28T02:17:50;100757.03;;;10.50;nan
30967;BME280;17649;51.836;8.330;2023-04-28T02:20:50;100756.34;;;10.46;nan
30967;BME280;17649;51.836;8.330;2023-04-28T02:23:51;100753.25;;;10.55;nan
30967;BME280;17649;51.836;8.330;2023-04-28T02:26:51;100754.84;;;10.42;nan
30967;BME280;17649;51.836;8.330;2023-04-28T02:29:51;100754.31;;;10.35;nan
30967;BME280;17649;51.836;8.330;2023-04-28T02:32:52;100747.09;;;10.42;nan
30967;BME280;17649;51.836;8.330;2023-04-28T02:35:57;100744.84;;;10.52;nan
30967;BME280;17649;51.836;8.330;2023-04-28T02:38:57;100735.63;;;10.30;nan
30967;BME280;17649;51.836;8.330;2023-04-28T02:41:57;100728.16;;;10.41;nan
30967;BME280;17649;51.836;8.330;2023-04-28T02:44:59;100717.63;;;10.44;nan
30967;BME280;17649;51.836;8.330;2023-04-28T02:47:59;100716.81;;;10.60;nan
30967;BME280;17649;51.836;8.330;2023-04-28T02:51:02;100716.47;;;10.66;nan
30967;BME280;17649;51.836;8.330;2023-04-28T02:54:02;100712.28;;;10.48;nan
30967;BME280;17649;51.836;8.330;2023-04-28T02:57:03;100708.31;;;10.58;nan
30967;BME280;17649;51.836;8.330;2023-04-28T03:00:03;100707.22;;;10.62;nan
30967;BME280;17649;51.836;8.330;2023-04-28T03:03:04;100694.94;;;10.65;nan
30967;BME280;17649;51.836;8.330;2023-04-28T03:06:04;100696.94;;;10.60;nan
30967;BME280;17649;51.836;8.330;2023-04-28T03:09:04;100690.78;;;10.63;nan
30967;BME280;17649;51.836;8.330;2023-04-28T03:12:05;100698.09;;;10.70;nan
30967;BME280;17649;51.836;8.330;2023-04-28T03:15:06;100691.53;;;10.81;nan
30967;BME280;17649;51.836;8.330;2023-04-28T03:18:07;100701.69;;;10.84;nan
30967;BME280;17649;51.836;8.330;2023-04-28T03:21:08;100697.78;;;10.77;nan
30967;BME280;17649;51.836;8.330;2023-04-28T03:24:08;100690.78;;;10.79;nan
30967;BME280;17649;51.836;8.330;2023-04-28T03:27:08;100689.09;;;10.78;nan
30967;BME280;17649;51.836;8.330;2023-04-28T03:30:09;100686.91;;;10.86;nan
30967;BME280;17649;51.836;8.330;2023-04-28T03:33:09;100691.44;;;10.82;nan
30967;BME280;17649;51.836;8.330;2023-04-28T03:36:09;100680.91;;;10.85;nan
30967;BME280;17649;51.836;8.330;2023-04-28T03:39:10;100675.72;;;10.85;nan
30967;BME280;17649;51.836;8.330;2023-04-28T03:42:10;100672.38;;;10.83;nan
30967;BME280;17649;51.836;8.330;2023-04-28T03:45:10;100677.56;;;10.83;nan
30967;BME280;17649;51.836;8.330;2023-04-28T03:48:11;100678.25;;;10.87;nan
30967;BME280;17649;51.836;8.330;2023-04-28T03:51:11;100677.81;;;10.94;nan
30967;BME280;17649;51.836;8.330;2023-04-28T03:54:11;100673.06;;;11.02;nan
30967;BME280;17649;51.836;8.330;2023-04-28T03:57:11;100665.53;;;10.98;nan
30967;BME280;17649;51.836;8.330;2023-04-28T04:00:12;100664.59;;;10.99;nan
30967;BME280;17649;51.836;8.330;2023-04-28T04:03:13;100665.78;;;10.93;nan
30967;BME280;17649;51.836;8.330;2023-04-28T04:06:13;100663.53;;;11.03;nan
30967;BME280;17649;51.836;8.330;2023-04-28T04:09:14;100668.84;;;11.00;nan
30967;BME280;17649;51.836;8.330;2023-04-28T04:12:14;100681.56;;;11.04;nan
30967;BME280;17649;51.836;8.330;2023-04-28T04:15:15;100677.13;;;11.07;nan
30967;BME280;17649;51.836;8.330;2023-04-28T04:18:15;100685.16;;;11.02;nan
30967;BME280;17649;51.836;8.330;2023-04-28T04:21:15;100682.13;;;11.10;nan
30967;BME280;17649;51.836;8.330;2023-04-28T04:24:15;100675.22;;;11.10;nan
30967;BME280;17649;51.836;8.330;2023-04-28T04:27:15;100674.38;;;11.10;nan
30967;BME280;17649;51.836;8.330;2023-04-28T04:30:16;100671.03;;;11.08;nan
30967;BME280;17649;51.836;8.330;2023-04-28T04:33:16;100668.63;;;11.04;nan
30967;BME280;17649;51.836;8.330;2023-04-28T04:36:16;100666.34;;;10.98;nan
30967;BME280;17649;51.836;8.330;2023-04-28T04:39:16;100671.25;;;10.89;nan
30967;BME280;17649;51.836;8.330;2023-04-28T04:42:17;100670.91;;;10.79;nan
30967;BME280;17649;51.836;8.330;2023-04-28T04:45:17;100671.56;;;10.83;nan
30967;BME280;17649;51.836;8.330;2023-04-28T04:48:17;100678.25;;;10.87;nan
30967;BME280;17649;51.836;8.330;2023-04-28T04:51:17;100670.41;;;10.88;nan
30967;BME280;17649;51.836;8.330;2023-04-28T04:54:18;100680.75;;;10.88;nan
30967;BME280;17649;51.836;8.330;2023-04-28T04:57:18;100678.56;;;10.96;nan
30967;BME280;17649;51.836;8.330;2023-04-28T05:00:18;100673.91;;;11.03;nan
30967;BME280;17649;51.836;8.330;2023-04-28T05:03:19;100664.47;;;11.02;nan
30967;BME280;17649;51.836;8.330;2023-04-28T05:06:19;100649.41;;;11.09;nan
30967;BME280;17649;51.836;8.330;2023-04-28T05:09:19;100645.97;;;11.08;nan
30967;BME280;17649;51.836;8.330;2023-04-28T05:12:20;100652.16;;;11.05;nan
30967;BME280;17649;51.836;8.330;2023-04-28T05:15:20;100648.81;;;11.19;nan
30967;BME280;17649;51.836;8.330;2023-04-28T05:18:20;100644.53;;;11.18;nan
30967;BME280;17649;51.836;8.330;2023-04-28T05:21:21;100643.16;;;11.27;nan
30967;BME280;17649;51.836;8.330;2023-04-28T05:24:21;100647.41;;;11.28;nan
30967;BME280;17649;51.836;8.330;2023-04-28T05:27:24;100647.28;;;11.15;nan
30967;BME280;17649;51.836;8.330;2023-04-28T05:30:24;100644.63;;;11.17;nan
30967;BME280;17649;51.836;8.330;2023-04-28T05:33:25;100646.31;;;11.18;nan
30967;BME280;17649;51.836;8.330;2023-04-28T05:36:25;100647.72;;;11.08;nan
30967;BME280;17649;51.836;8.330;2023-04-28T05:39:25;100654.44;;;11.26;nan
30967;BME280;17649;51.836;8.330;2023-04-28T05:42:26;100641.22;;;11.30;nan
30967;BME280;17649;51.836;8.330;2023-04-28T05:45:26;100646.66;;;11.56;nan
30967;BME280;17649;51.836;8.330;2023-04-28T05:48:26;100644.72;;;11.59;nan
30967;BME280;17649;51.836;8.330;2023-04-28T05:51:26;100644.66;;;11.61;nan
30967;BME280;17649;51.836;8.330;2023-04-28T05:54:27;100642.66;;;11.80;nan
30967;BME280;17649;51.836;8.330;2023-04-28T05:57:27;100642.91;;;11.76;nan
30967;BME280;17649;51.836;8.330;2023-04-28T06:00:27;100649.38;;;11.69;nan
30967;BME280;17649;51.836;8.330;2023-04-28T06:03:27;100649.31;;;11.84;nan
30967;BME280;17649;51.836;8.330;2023-04-28T06:06:28;100649.22;;;11.86;nan
30967;BME280;17649;51.836;8.330;2023-04-28T06:09:28;100644.72;;;11.74;nan
30967;BME280;17649;51.836;8.330;2023-04-28T06:12:28;100645.91;;;11.84;nan
30967;BME280;17649;51.836;8.330;2023-04-28T06:15:29;100643.75;;;12.05;nan
30967;BME280;17649;51.836;8.330;2023-04-28T06:18:29;100640.06;;;12.09;nan
30967;BME280;17649;51.836;8.330;2023-04-28T06:21:33;100635.09;;;12.06;nan
30967;BME280;17649;51.836;8.330;2023-04-28T06:24:33;100623.69;;;12.08;nan
30967;BME280;17649;51.836;8.330;2023-04-28T06:27:33;100626.81;;;12.28;nan
30967;BME280;17649;51.836;8.330;2023-04-28T06:30:33;100620.84;;;12.40;nan
30967;BME280;17649;51.836;8.330;2023-04-28T06:33:34;100623.56;;;12.38;nan
30967;BME280;17649;51.836;8.330;2023-04-28T06:36:34;100620.56;;;12.44;nan
30967;BME280;17649;51.836;8.330;2023-04-28T06:39:34;100610.28;;;12.43;nan
30967;BME280;17649;51.836;8.330;2023-04-28T06:42:35;100609.25;;;12.45;nan
30967;BME280;17649;51.836;8.330;2023-04-28T06:45:35;100601.28;;;12.75;nan
30967;BME280;17649;51.836;8.330;2023-04-28T06:48:36;100601.84;;;12.80;nan
30967;BME280;17649;51.836;8.330;2023-04-28T06:51:36;100604.47;;;13.06;nan
30967;BME280;17649;51.836;8.330;2023-04-28T06:54:36;100612.88;;;12.97;nan
30967;BME280;17649;51.836;8.330;2023-04-28T06:57:37;100608.63;;;12.96;nan
30967;BME280;17649;51.836;8.330;2023-04-28T07:00:37;100606.09;;;13.21;nan
30967;BME280;17649;51.836;8.330;2023-04-28T07:03:38;100607.59;;;13.25;nan
30967;BME280;17649;51.836;8.330;2023-04-28T07:06:38;100587.19;;;13.19;nan
30967;BME280;17649;51.836;8.330;2023-04-28T07:09:38;100580.97;;;13.34;nan
30967;BME280;17649;51.836;8.330;2023-04-28T07:12:38;100587.53;;;13.27;nan
30967;BME280;17649;51.836;8.330;2023-04-28T07:15:39;100592.16;;;13.22;nan
30967;BME280;17649;51.836;8.330;2023-04-28T07:18:39;100588.47;;;13.26;nan
30967;BME280;17649;51.836;8.330;2023-04-28T07:21:39;100588.88;;;13.33;nan
30967;BME280;17649;51.836;8.330;2023-04-28T07:24:40;100590.94;;;13.53;nan
30967;BME280;17649;51.836;8.330;2023-04-28T07:27:40;100589.81;;;13.70;nan
30967;BME280;17649;51.836;8.330;2023-04-28T07:30:40;100579.16;;;13.98;nan
30967;BME280;17649;51.836;8.330;2023-04-28T07:33:41;100571.78;;;14.66;nan
30967;BME280;17649;51.836;8.330;2023-04-28T07:36:41;100574.88;;;14.71;nan
30967;BME280;17649;51.836;8.330;2023-04-28T07:39:41;100579.66;;;14.77;nan
30967;BME280;17649;51.836;8.330;2023-04-28T07:42:41;100570.00;;;14.90;nan
30967;BME280;17649;51.836;8.330;2023-04-28T07:45:41;100566.28;;;14.81;nan
30967;BME280;17649;51.836;8.330;2023-04-28T07:48:44;100564.72;;;15.14;nan
30967;BME280;17649;51.836;8.330;2023-04-28T07:51:44;100563.25;;;15.45;nan
30967;BME280;17649;51.836;8.330;2023-04-28T07:54:45;100557.63;;;15.05;nan
30967;BME280;17649;51.836;8.330;2023-04-28T07:57:45;100555.03;;;15.27;nan
30967;BME280;17649;51.836;8.330;2023-04-28T08:00:45;100550.63;;;15.16;nan
30967;BME280;17649;51.836;8.330;2023-04-28T08:03:46;100544.41;;;15.41;nan
30967;BME280;17649;51.836;8.330;2023-04-28T08:06:46;100531.88;;;15.69;nan
30967;BME280;17649;51.836;8.330;2023-04-28T08:09:46;100525.34;;;15.86;nan
30967;BME280;17649;51.836;8.330;2023-04-28T08:12:47;100517.94;;;16.13;nan
30967;BME280;17649;51.836;8.330;2023-04-28T08:15:47;100511.47;;;15.96;nan
30967;BME280;17649;51.836;8.330;2023-04-28T08:18:48;100507.91;;;16.40;nan
30967;BME280;17649;51.836;8.330;2023-04-28T08:21:48;100507.09;;;16.72;nan
30967;BME280;17649;51.836;8.330;2023-04-28T08:24:48;100519.88;;;16.75;nan
30967;BME280;17649;51.836;8.330;2023-04-28T08:27:49;100529.06;;;16.90;nan
30967;BME280;17649;51.836;8.330;2023-04-28T08:30:49;100530.47;;;16.74;nan
30967;BME280;17649;51.836;8.330;2023-04-28T08:33:49;100539.00;;;16.64;nan
30967;BME280;17649;51.836;8.330;2023-04-28T08:36:50;100543.91;;;16.69;nan
30967;BME280;17649;51.836;8.330;2023-04-28T08:39:50;100535.94;;;16.71;nan
30967;BME280;17649;51.836;8.330;2023-04-28T08:42:58;100535.00;;;16.28;nan
30967;BME280;17649;51.836;8.330;2023-04-28T08:45:59;100530.34;;;16.64;nan
30967;BME280;17649;51.836;8.330;2023-04-28T08:49:03;100535.66;;;16.53;nan
30967;BME280;17649;51.836;8.330;2023-04-28T08:52:09;100553.09;;;15.75;nan
30967;BME280;17649;51.836;8.330;2023-04-28T08:55:11;100561.59;;;15.33;nan
30967;BME280;17649;51.836;8.330;2023-04-28T08:58:15;100568.59;;;14.97;nan
30967;BME280;17649;51.836;8.330;2023-04-28T09:01:16;100566.97;;;15.07;nan
30967;BME280;17649;51.836;8.330;2023-04-28T09:04:17;100557.69;;;14.92;nan
30967;BME280;17649;51.836;8.330;2023-04-28T09:07:17;100554.19;;;15.15;nan
30967;BME280;17649;51.836;8.330;2023-04-28T09:13:24;100547.00;;;15.19;nan
30967;BME280;17649;51.836;8.330;2023-04-28T09:16:24;100538.78;;;15.12;nan
30967;BME280;17649;51.836;8.330;2023-04-28T09:19:38;100551.66;;;14.91;nan
30967;BME280;17649;51.836;8.330;2023-04-28T09:22:39;100543.44;;;14.74;nan
30967;BME280;17649;51.836;8.330;2023-04-28T09:25:39;100541.56;;;14.87;nan
30967;BME280;17649;51.836;8.330;2023-04-28T09:28:39;100534.56;;;14.87;nan
30967;BME280;17649;51.836;8.330;2023-04-28T09:31:48;100518.72;;;14.90;nan
30967;BME280;17649;51.836;8.330;2023-04-28T09:34:52;100520.75;;;14.98;nan
30967;BME280;17649;51.836;8.330;2023-04-28T09:37:58;100510.53;;;15.52;nan
30967;BME280;17649;51.836;8.330;2023-04-28T09:41:00;100500.91;;;15.98;nan
30967;BME280;17649;51.836;8.330;2023-04-28T09:44:10;100501.34;;;16.46;nan
30967;BME280;17649;51.836;8.330;2023-04-28T09:47:18;100507.78;;;15.99;nan
30967;BME280;17649;51.836;8.330;2023-04-28T09:50:21;100506.13;;;15.87;nan
30967;BME280;17649;51.836;8.330;2023-04-28T09:53:25;100491.97;;;16.12;nan
30967;BME280;17649;51.836;8.330;2023-04-28T09:56:26;100491.97;;;16.76;nan
30967;BME280;17649;51.836;8.330;2023-04-28T09:59:26;100490.59;;;16.72;nan
30967;BME280;17649;51.836;8.330;2023-04-28T10:02:27;100495.75;;;17.04;nan
30967;BME280;17649;51.836;8.330;2023-04-28T10:05:28;100493.81;;;17.06;nan
30967;BME280;17649;51.836;8.330;2023-04-28T10:08:29;100478.81;;;18.38;nan
30967;BME280;17649;51.836;8.330;2023-04-28T10:11:29;100481.03;;;19.28;nan
30967;BME280;17649;51.836;8.330;2023-04-28T10:14:30;100470.19;;;19.50;nan
30967;BME280;17649;51.836;8.330;2023-04-28T10:17:30;100476.53;;;19.48;nan
30967;BME280;17649;51.836;8.330;2023-04-28T10:20:31;100477.97;;;18.86;nan
30967;BME280;17649;51.836;8.330;2023-04-28T10:27:01;100472.22;;;19.66;nan
30967;BME280;17649;51.836;8.330;2023-04-28T10:30:08;100470.31;;;19.21;nan
30967;BME280;17649;51.836;8.330;2023-04-28T10:36:45;100460.88;;;19.28;nan
30967;BME280;17649;51.836;8.330;2023-04-28T10:40:29;100463.41;;;19.48;nan
30967;BME280;17649;51.836;8.330;2023-04-28T10:43:09;100470.44;;;19.20;nan
30967;BME280;17649;51.836;8.330;2023-04-28T10:46:10;100457.16;;;20.21;nan
30967;BME280;17649;51.836;8.330;2023-04-28T10:49:10;100453.97;;;20.28;nan
30967;BME280;17649;51.836;8.330;2023-04-28T10:55:34;100445.22;;;20.63;nan
30967;BME280;17649;51.836;8.330;2023-04-28T10:58:40;100438.53;;;20.94;nan
30967;BME280;17649;51.836;8.330;2023-04-28T11:01:41;100433.28;;;20.68;nan
30967;BME280;17649;51.836;8.330;2023-04-28T11:05:27;100430.09;;;20.57;nan
30967;BME280;17649;51.836;8.330;2023-04-28T11:11:22;100440.06;;;19.82;nan
30967;BME280;17649;51.836;8.330;2023-04-28T11:17:34;100430.41;;;19.55;nan
30967;BME280;17649;51.836;8.330;2023-04-28T11:20:38;100438.94;;;19.84;nan
30967;BME280;17649;51.836;8.330;2023-04-28T11:23:41;100441.06;;;19.44;nan
30967;BME280;17649;51.836;8.330;2023-04-28T11:26:42;100423.59;;;19.62;nan
30967;BME280;17649;51.836;8.330;2023-04-28T11:29:42;100419.16;;;19.62;nan
30967;BME280;17649;51.836;8.330;2023-04-28T11:32:45;100422.94;;;19.23;nan
30967;BME280;17649;51.836;8.330;2023-04-28T11:35:48;100414.41;;;19.21;nan
30967;BME280;17649;51.836;8.330;2023-04-28T11:38:48;100423.81;;;19.04;nan
30967;BME280;17649;51.836;8.330;2023-04-28T11:41:49;100409.91;;;20.04;nan
30967;BME280;17649;51.836;8.330;2023-04-28T11:44:50;100404.81;;;21.58;nan
30967;BME280;17649;51.836;8.330;2023-04-28T11:47:51;100417.22;;;22.79;nan
30967;BME280;17649;51.836;8.330;2023-04-28T11:50:51;100411.69;;;22.34;nan
30967;BME280;17649;51.836;8.330;2023-04-28T11:53:52;100415.06;;;22.91;nan
30967;BME280;17649;51.836;8.330;2023-04-28T11:56:53;100408.31;;;22.97;nan
30967;BME280;17649;51.836;8.330;2023-04-28T12:00:10;100410.53;;;23.24;nan
30967;BME280;17649;51.836;8.330;2023-04-28T12:03:11;100409.41;;;23.10;nan
30967;BME280;17649;51.836;8.330;2023-04-28T12:06:12;100398.16;;;24.32;nan
30967;BME280;17649;51.836;8.330;2023-04-28T12:09:17;100386.63;;;25.22;nan
30967;BME280;17649;51.836;8.330;2023-04-28T12:12:27;100390.72;;;21.91;nan
30967;BME280;17649;51.836;8.330;2023-04-28T12:15:38;100392.31;;;20.83;nan
30967;BME280;17649;51.836;8.330;2023-04-28T12:18:44;100383.28;;;21.79;nan
30967;BME280;17649;51.836;8.330;2023-04-28T12:21:57;100383.47;;;21.93;nan
30967;BME280;17649;51.836;8.330;2023-04-28T12:25:16;100385.91;;;22.68;nan
30967;BME280;17649;51.836;8.330;2023-04-28T12:28:18;100382.97;;;21.82;nan
30967;BME280;17649;51.836;8.330;2023-04-28T12:31:18;100376.91;;;22.38;nan
30967;BME280;17649;51.836;8.330;2023-04-28T12:34:18;100377.72;;;20.63;nan
30967;BME280;17649;51.836;8.330;2023-04-28T12:37:19;100376.00;;;21.56;nan
30967;BME280;17649;51.836;8.330;2023-04-28T12:40:21;100367.75;;;21.51;nan
30967;BME280;17649;51.836;8.330;2023-04-28T12:43:22;100365.22;;;22.16;nan
30967;BME280;17649;51.836;8.330;2023-04-28T12:46:23;100373.44;;;22.13;nan
30967;BME280;17649;51.836;8.330;2023-04-28T12:49:23;100378.94;;;21.11;nan
30967;BME280;17649;51.836;8.330;2023-04-28T12:52:23;100387.72;;;19.25;nan
30967;BME280;17649;51.836;8.330;2023-04-28T12:55:24;100401.06;;;18.48;nan
30967;BME280;17649;51.836;8.330;2023-04-28T12:58:24;100395.69;;;18.21;nan
30967;BME280;17649;51.836;8.330;2023-04-28T13:01:24;100399.91;;;18.80;nan
30967;BME280;17649;51.836;8.330;2023-04-28T13:04:26;100395.38;;;18.53;nan
30967;BME280;17649;51.836;8.330;2023-04-28T13:07:26;100395.63;;;18.79;nan
30967;BME280;17649;51.836;8.330;2023-04-28T13:10:26;100396.38;;;19.08;nan
30967;BME280;17649;51.836;8.330;2023-04-28T13:13:27;100402.16;;;19.02;nan
30967;BME280;17649;51.836;8.330;2023-04-28T13:16:28;100400.78;;;18.51;nan
30967;BME280;17649;51.836;8.330;2023-04-28T13:19:29;100400.38;;;18.46;nan
30967;BME280;17649;51.836;8.330;2023-04-28T13:22:30;100393.41;;;18.84;nan
30967;BME280;17649;51.836;8.330;2023-04-28T13:25:30;100387.31;;;18.17;nan
30967;BME280;17649;51.836;8.330;2023-04-28T13:28:30;100388.97;;;18.18;nan
30967;BME280;17649;51.836;8.330;2023-04-28T13:31:31;100392.63;;;18.54;nan
30967;BME280;17649;51.836;8.330;2023-04-28T13:34:31;100391.31;;;18.02;nan
30967;BME280;17649;51.836;8.330;2023-04-28T13:37:32;100391.25;;;17.23;nan
30967;BME280;17649;51.836;8.330;2023-04-28T13:40:32;100406.09;;;16.82;nan
30967;BME280;17649;51.836;8.330;2023-04-28T13:43:33;100402.59;;;17.03;nan
30967;BME280;17649;51.836;8.330;2023-04-28T13:46:33;100395.38;;;17.16;nan
30967;BME280;17649;51.836;8.330;2023-04-28T13:49:34;100403.22;;;17.25;nan
30967;BME280;17649;51.836;8.330;2023-04-28T13:52:34;100400.13;;;17.01;nan
30967;BME280;17649;51.836;8.330;2023-04-28T13:55:35;100404.78;;;16.56;nan
30967;BME280;17649;51.836;8.330;2023-04-28T13:58:35;100399.63;;;16.86;nan
30967;BME280;17649;51.836;8.330;2023-04-28T14:01:36;100392.53;;;16.98;nan
30967;BME280;17649;51.836;8.330;2023-04-28T14:04:36;100401.78;;;16.81;nan
30967;BME280;17649;51.836;8.330;2023-04-28T14:07:36;100405.06;;;16.74;nan
30967;BME280;17649;51.836;8.330;2023-04-28T14:10:36;100407.97;;;16.38;nan
30967;BME280;17649;51.836;8.330;2023-04-28T14:13:37;100417.16;;;16.22;nan
30967;BME280;17649;51.836;8.330;2023-04-28T14:16:37;100414.94;;;15.85;nan
30967;BME280;17649;51.836;8.330;2023-04-28T14:19:37;100415.06;;;15.84;nan
30967;BME280;17649;51.836;8.330;2023-04-28T14:22:37;100409.78;;;15.51;nan
30967;BME280;17649;51.836;8.330;2023-04-28T14:25:38;100409.75;;;15.74;nan
30967;BME280;17649;51.836;8.330;2023-04-28T14:28:38;100418.00;;;15.90;nan
30967;BME280;17649;51.836;8.330;2023-04-28T14:31:38;100404.72;;;16.25;nan
30967;BME280;17649;51.836;8.330;2023-04-28T14:34:39;100397.25;;;17.04;nan
30967;BME280;17649;51.836;8.330;2023-04-28T14:37:39;100402.75;;;17.41;nan
30967;BME280;17649;51.836;8.330;2023-04-28T14:40:39;100394.28;;;17.18;nan
30967;BME280;17649;51.836;8.330;2023-04-28T14:43:41;100395.66;;;17.22;nan
30967;BME280;17649;51.836;8.330;2023-04-28T14:46:42;100382.72;;;16.90;nan
30967;BME280;17649;51.836;8.330;2023-04-28T14:49:42;100376.31;;;17.54;nan
30967;BME280;17649;51.836;8.330;2023-04-28T14:52:42;100358.84;;;20.68;nan
30967;BME280;17649;51.836;8.330;2023-04-28T14:55:43;100319.59;;;25.00;nan
30967;BME280;17649;51.836;8.330;2023-04-28T14:58:43;100312.59;;;27.24;nan
30967;BME280;17649;51.836;8.330;2023-04-28T15:01:43;100307.00;;;24.05;nan
30967;BME280;17649;51.836;8.330;2023-04-28T15:04:43;100313.66;;;24.01;nan
30967;BME280;17649;51.836;8.330;2023-04-28T15:07:45;100297.81;;;26.05;nan
30967;BME280;17649;51.836;8.330;2023-04-28T15:10:45;100297.69;;;24.77;nan
30967;BME280;17649;51.836;8.330;2023-04-28T15:13:45;100309.34;;;23.01;nan
30967;BME280;17649;51.836;8.330;2023-04-28T15:16:46;100324.25;;;20.29;nan
30967;BME280;17649;51.836;8.330;2023-04-28T15:19:46;100319.53;;;19.71;nan
30967;BME280;17649;51.836;8.330;2023-04-28T15:22:47;100327.91;;;19.29;nan
30967;BME280;17649;51.836;8.330;2023-04-28T15:25:47;100331.94;;;19.05;nan
30967;BME280;17649;51.836;8.330;2023-04-28T15:28:52;100332.66;;;18.98;nan
30967;BME280;17649;51.836;8.330;2023-04-28T15:31:53;100321.50;;;18.49;nan
30967;BME280;17649;51.836;8.330;2023-04-28T15:34:53;100332.88;;;17.82;nan
30967;BME280;17649;51.836;8.330;2023-04-28T15:37:53;100336.31;;;17.92;nan
30967;BME280;17649;51.836;8.330;2023-04-28T15:40:54;100342.94;;;17.77;nan
30967;BME280;17649;51.836;8.330;2023-04-28T15:43:54;100330.94;;;17.84;nan
30967;BME280;17649;51.836;8.330;2023-04-28T15:46:56;100333.44;;;17.95;nan
30967;BME280;17649;51.836;8.330;2023-04-28T15:49:56;100331.78;;;17.94;nan
30967;BME280;17649;51.836;8.330;2023-04-28T15:53:00;100330.81;;;17.95;nan
30967;BME280;17649;51.836;8.330;2023-04-28T15:56:00;100332.75;;;17.93;nan
30967;BME280;17649;51.836;8.330;2023-04-28T15:59:01;100331.06;;;17.63;nan
30967;BME280;17649;51.836;8.330;2023-04-28T16:02:03;100340.75;;;18.01;nan
30967;BME280;17649;51.836;8.330;2023-04-28T16:05:03;100335.50;;;18.58;nan
30967;BME280;17649;51.836;8.330;2023-04-28T16:08:04;100324.81;;;18.88;nan
30967;BME280;17649;51.836;8.330;2023-04-28T16:11:04;100325.03;;;18.67;nan
30967;BME280;17649;51.836;8.330;2023-04-28T16:14:04;100327.19;;;18.35;nan
30967;BME280;17649;51.836;8.330;2023-04-28T16:17:05;100331.69;;;18.52;nan
30967;BME280;17649;51.836;8.330;2023-04-28T16:20:06;100328.59;;;19.03;nan
30967;BME280;17649;51.836;8.330;2023-04-28T16:23:06;100321.44;;;19.05;nan
30967;BME280;17649;51.836;8.330;2023-04-28T16:26:07;100317.03;;;18.59;nan
30967;BME280;17649;51.836;8.330;2023-04-28T16:29:07;100332.75;;;18.69;nan
30967;BME280;17649;51.836;8.330;2023-04-28T16:32:07;100329.03;;;18.71;nan